createdAt,value
2024-02-18T00:02:36.455Z,10.45
2024-02-18T00:05:19.242Z,9.48
2024-02-18T00:08:02.234Z,8.52
2024-02-18T00:10:44.963Z,7.45
2024-02-18T00:13:27.878Z,13.07
2024-02-18T00:16:12.053Z,9.02
2024-02-18T00:18:54.878Z,6.85
2024-02-18T00:21:38.739Z,8.07
2024-02-18T00:24:21.551Z,9.23
2024-02-18T00:27:04.696Z,7.80
2024-02-18T00:29:47.402Z,10.05
2024-02-18T00:32:31.478Z,13.13
2024-02-18T00:35:14.451Z,9.13
2024-02-18T00:37:58.880Z,7.90
2024-02-18T00:40:42.001Z,10.52
2024-02-18T00:43:24.688Z,11.10
2024-02-18T00:46:16.273Z,9.93
2024-02-18T00:49:08.811Z,6.68
2024-02-18T00:51:51.734Z,6.07
2024-02-18T00:54:35.033Z,9.75
2024-02-18T00:57:17.800Z,9.85
2024-02-18T01:00:00.615Z,9.25
2024-02-18T01:02:43.337Z,9.55
2024-02-18T01:05:27.425Z,7.15
2024-02-18T01:08:10.133Z,10.18
2024-02-18T01:10:52.914Z,8.98
2024-02-18T01:13:35.656Z,6.10
2024-02-18T01:16:18.331Z,8.13
2024-02-18T01:19:01.198Z,7.05
2024-02-18T01:21:45.409Z,5.63
2024-02-18T01:24:28.268Z,6.38
2024-02-18T01:27:11.019Z,6.60
2024-02-18T01:29:53.647Z,6.72
2024-02-18T01:32:36.384Z,7.25
2024-02-18T01:35:19.286Z,7.40
2024-02-18T01:38:03.387Z,6.40
2024-02-18T01:40:46.143Z,7.25
2024-02-18T01:43:28.815Z,5.25
2024-02-18T01:46:11.810Z,7.57
2024-02-18T01:48:55.054Z,6.03
2024-02-18T01:51:38.229Z,7.22
2024-02-18T01:54:22.429Z,7.80
2024-02-18T01:57:07.463Z,5.50
2024-02-18T01:59:50.520Z,6.07
2024-02-18T02:02:33.268Z,7.75
2024-02-18T02:05:17.620Z,7.20
2024-02-18T02:08:00.956Z,12.38
2024-02-18T02:10:45.421Z,6.85
2024-02-18T02:13:28.171Z,6.38
2024-02-18T02:16:11.047Z,9.73
2024-02-18T02:18:53.964Z,5.03
2024-02-18T02:21:36.648Z,6.35
2024-02-18T02:24:19.417Z,7.93
2024-02-18T02:27:06.312Z,5.18
2024-02-18T02:29:50.526Z,7.93
2024-02-18T02:32:35.683Z,6.85
2024-02-18T02:35:18.547Z,6.15
2024-02-18T02:38:01.291Z,8.02
2024-02-18T02:40:43.976Z,4.95
2024-02-18T02:43:27.404Z,8.07
2024-02-18T02:46:11.584Z,5.68
2024-02-18T02:48:54.408Z,6.32
2024-02-18T02:51:37.183Z,6.15
2024-02-18T02:54:19.999Z,4.72
2024-02-18T02:57:02.811Z,7.90
2024-02-18T02:59:45.499Z,6.32
2024-02-18T03:02:29.601Z,5.88
2024-02-18T03:05:12.471Z,8.50
2024-02-18T03:07:55.253Z,7.25
2024-02-18T03:10:38.292Z,7.68
2024-02-18T03:13:21.463Z,4.93
2024-02-18T03:16:04.491Z,5.80
2024-02-18T03:18:48.885Z,5.85
2024-02-18T03:21:31.677Z,5.47
2024-02-18T03:24:14.380Z,6.90
2024-02-18T03:26:57.097Z,3.65
2024-02-18T03:29:39.754Z,4.53
2024-02-18T03:32:22.878Z,6.88
2024-02-18T03:35:07.838Z,7.13
2024-02-18T03:37:50.669Z,10.63
2024-02-18T03:40:33.456Z,4.85
2024-02-18T03:43:16.190Z,7.72
2024-02-18T03:45:59.310Z,6.70
2024-02-18T03:48:42.246Z,7.45
2024-02-18T03:51:26.459Z,9.60
2024-02-18T03:54:09.309Z,11.77
2024-02-18T03:56:52.229Z,7.88
2024-02-18T03:59:35.244Z,8.07
2024-02-18T04:02:17.912Z,7.75
2024-02-18T04:05:00.626Z,8.50
2024-02-18T04:07:44.803Z,7.78
2024-02-18T04:10:27.519Z,9.10
2024-02-18T04:13:10.304Z,5.38
2024-02-18T04:15:53.129Z,8.13
2024-02-18T04:18:35.928Z,5.10
2024-02-18T04:21:18.726Z,4.85
2024-02-18T04:24:02.750Z,6.13
2024-02-18T04:26:45.532Z,5.53
2024-02-18T04:29:28.268Z,6.43
2024-02-18T04:32:11.054Z,5.35
2024-02-18T04:34:53.784Z,3.75
2024-02-18T04:37:36.552Z,5.10
2024-02-18T04:40:20.746Z,5.90
2024-02-18T04:43:03.658Z,4.30
2024-02-18T04:45:48.189Z,4.63
2024-02-18T04:48:31.564Z,4.93
2024-02-18T04:51:14.392Z,6.20
2024-02-18T04:53:57.095Z,6.07
2024-02-18T04:56:41.191Z,4.13
2024-02-18T04:59:24.105Z,6.55
2024-02-18T05:02:09.837Z,5.22
2024-02-18T05:04:53.461Z,6.72
2024-02-18T05:07:36.213Z,5.45
2024-02-18T05:10:18.969Z,7.25
2024-02-18T05:13:03.527Z,3.80
2024-02-18T05:15:47.685Z,8.35
2024-02-18T05:18:30.630Z,6.13
2024-02-18T05:21:13.396Z,10.73
2024-02-18T05:23:58.087Z,13.00
2024-02-18T05:26:40.770Z,11.18
2024-02-18T05:29:24.853Z,11.18
2024-02-18T05:32:07.835Z,10.40
2024-02-18T05:34:50.705Z,12.32
2024-02-18T05:37:33.630Z,9.50
2024-02-18T05:40:16.540Z,9.93
2024-02-18T05:42:59.370Z,10.73
2024-02-18T05:45:43.534Z,10.65
2024-02-18T05:48:26.736Z,11.10
2024-02-18T05:51:09.855Z,9.55
2024-02-18T05:53:52.578Z,10.98
2024-02-18T05:56:35.373Z,13.63
2024-02-18T05:59:18.079Z,9.70
2024-02-18T06:02:02.304Z,10.02
2024-02-18T06:04:45.479Z,11.13
2024-02-18T06:07:28.302Z,12.00
2024-02-18T06:10:11.428Z,10.77
2024-02-18T06:12:54.172Z,14.52
2024-02-18T06:15:36.940Z,16.05
2024-02-18T06:18:21.355Z,14.63
2024-02-18T06:21:05.365Z,15.38
2024-02-18T06:23:48.160Z,18.13
2024-02-18T06:26:31.068Z,17.35
2024-02-18T06:29:13.787Z,16.90
2024-02-18T06:31:56.486Z,18.85
2024-02-18T06:34:40.706Z,15.52
2024-02-18T06:37:23.463Z,22.15
2024-02-18T06:40:06.925Z,17.52
2024-02-18T06:42:49.971Z,17.77
2024-02-18T06:45:32.715Z,21.08
2024-02-18T06:48:15.671Z,21.23
2024-02-18T06:50:59.844Z,19.35
2024-02-18T06:53:42.609Z,17.77
2024-02-18T06:56:25.318Z,17.65
2024-02-18T06:59:08.021Z,19.08
2024-02-18T07:01:50.832Z,18.88
2024-02-18T07:04:33.641Z,21.55
2024-02-18T07:07:18.013Z,20.40
2024-02-18T07:10:00.918Z,20.77
2024-02-18T07:12:43.686Z,17.67
2024-02-18T07:15:26.472Z,18.77
2024-02-18T07:18:09.466Z,17.90
2024-02-18T07:20:52.435Z,20.92
2024-02-18T07:23:36.541Z,19.45
2024-02-18T07:26:19.321Z,16.95
2024-02-18T07:29:01.995Z,16.90
2024-02-18T07:31:44.751Z,18.63
2024-02-18T07:34:27.604Z,17.52
2024-02-18T07:37:11.884Z,15.77
2024-02-18T07:39:56.051Z,18.70
2024-02-18T07:42:39.561Z,15.45
2024-02-18T07:45:22.329Z,13.63
2024-02-18T07:48:05.481Z,15.50
2024-02-18T07:50:48.216Z,15.65
2024-02-18T07:53:30.896Z,15.95
2024-02-18T07:56:15.342Z,15.48
2024-02-18T07:58:58.095Z,17.00
2024-02-18T08:01:41.006Z,16.02
2024-02-18T08:04:23.975Z,20.65
2024-02-18T08:07:06.887Z,19.20
2024-02-18T08:09:49.668Z,17.48
2024-02-18T08:12:34.357Z,16.35
2024-02-18T08:15:17.118Z,16.23
2024-02-18T08:17:59.967Z,17.77
2024-02-18T08:20:42.658Z,16.40
2024-02-18T08:23:28.750Z,16.45
2024-02-18T08:26:20.971Z,14.73
2024-02-18T08:29:05.046Z,16.67
2024-02-18T08:31:47.796Z,15.48
2024-02-18T08:34:30.987Z,16.98
2024-02-18T08:37:13.858Z,20.63
2024-02-18T08:39:56.679Z,16.77
2024-02-18T08:42:39.405Z,16.65
2024-02-18T08:45:23.574Z,15.52
2024-02-18T08:48:06.896Z,15.13
2024-02-18T08:50:50.137Z,14.27
2024-02-18T08:53:32.985Z,15.50
2024-02-18T08:56:16.519Z,13.20
2024-02-18T08:58:59.270Z,13.35
2024-02-18T09:01:43.388Z,15.60
2024-02-18T09:04:26.304Z,18.48
2024-02-18T09:07:09.407Z,12.52
2024-02-18T09:09:52.252Z,18.85
2024-02-18T09:12:35.151Z,15.23
2024-02-18T09:15:17.883Z,15.48
2024-02-18T09:18:02.026Z,15.40
2024-02-18T09:20:45.080Z,13.93
2024-02-18T09:23:28.466Z,13.65
2024-02-18T09:26:11.581Z,16.80
2024-02-18T09:28:54.442Z,16.42
2024-02-18T09:31:37.859Z,15.27
2024-02-18T09:34:22.243Z,18.30
2024-02-18T09:37:05.336Z,20.30
2024-02-18T09:39:48.140Z,14.23
2024-02-18T09:42:36.245Z,14.63
2024-02-18T09:45:20.987Z,16.80
2024-02-18T09:48:04.070Z,14.95
2024-02-18T09:50:50.958Z,16.33
2024-02-18T09:53:34.938Z,15.07
2024-02-18T09:56:17.899Z,16.75
2024-02-18T09:59:00.694Z,14.23
2024-02-18T10:01:43.693Z,15.57
2024-02-18T10:04:26.738Z,17.23
2024-02-18T10:07:10.959Z,15.25
2024-02-18T10:09:53.850Z,14.32
2024-02-18T10:12:36.882Z,18.20
2024-02-18T10:15:20.449Z,14.57
2024-02-18T10:18:04.480Z,13.85
2024-02-18T10:20:48.743Z,14.13
2024-02-18T10:23:32.917Z,14.05
2024-02-18T10:26:16.855Z,14.38
2024-02-18T10:28:59.651Z,14.07
2024-02-18T10:31:42.464Z,16.90
2024-02-18T10:34:25.920Z,13.52
2024-02-18T10:37:10.302Z,14.32
2024-02-18T10:39:55.959Z,16.02
2024-02-18T10:42:41.026Z,15.27
2024-02-18T10:45:24.188Z,13.07
2024-02-18T10:48:10.089Z,17.08
2024-02-18T10:50:53.562Z,14.77
2024-02-18T10:53:42.090Z,14.13
2024-02-18T10:56:26.237Z,13.93
2024-02-18T10:59:12.545Z,15.40
2024-02-18T11:01:58.011Z,10.70
2024-02-18T11:04:40.962Z,15.25
2024-02-18T11:07:24.879Z,15.13
2024-02-18T11:10:08.931Z,14.95
2024-02-18T11:12:53.394Z,12.50
2024-02-18T11:15:37.597Z,15.45
2024-02-18T11:18:20.459Z,13.45
2024-02-18T11:21:03.461Z,14.55
2024-02-18T11:23:49.470Z,13.23
2024-02-18T11:26:32.281Z,13.77
2024-02-18T11:29:17.073Z,13.10
2024-02-18T11:31:59.844Z,15.27
2024-02-18T11:34:47.230Z,13.02
2024-02-18T11:37:32.666Z,12.85
2024-02-18T11:40:17.418Z,13.73
2024-02-18T11:43:00.666Z,11.30
2024-02-18T11:45:48.532Z,12.88
2024-02-18T11:48:31.619Z,10.85
2024-02-18T11:51:14.726Z,14.05
2024-02-18T11:53:57.962Z,14.48
2024-02-18T11:56:40.854Z,12.00
2024-02-18T11:59:23.612Z,12.77
2024-02-18T12:02:09.222Z,11.77
2024-02-18T12:04:52.436Z,12.20
2024-02-18T12:07:37.551Z,8.90
2024-02-18T12:10:20.701Z,11.38
2024-02-18T12:13:03.978Z,14.10
2024-02-18T12:15:47.075Z,8.88
2024-02-18T12:18:31.825Z,10.38
2024-02-18T12:21:17.564Z,9.38
2024-02-18T12:24:01.926Z,9.43
2024-02-18T12:26:44.685Z,7.68
2024-02-18T12:29:27.451Z,7.85
2024-02-18T12:32:10.474Z,6.70
2024-02-18T12:34:54.682Z,7.70
2024-02-18T12:37:37.727Z,6.88
2024-02-18T12:40:21.032Z,5.25
2024-02-18T12:43:26.725Z,7.28
2024-02-18T12:46:09.706Z,5.93
2024-02-18T12:48:53.251Z,6.40
2024-02-18T12:51:43.987Z,6.78
2024-02-18T12:54:26.794Z,7.10
2024-02-18T12:57:09.944Z,7.32
2024-02-18T12:59:52.648Z,7.43
2024-02-18T13:02:35.678Z,7.53
2024-02-18T13:05:18.742Z,5.82
2024-02-18T13:08:05.803Z,5.18
2024-02-18T13:10:49.176Z,5.10
2024-02-18T13:13:31.923Z,6.50
2024-02-18T13:16:14.625Z,6.97
2024-02-18T13:18:57.411Z,5.60
2024-02-18T13:21:40.363Z,7.85
2024-02-18T13:24:24.483Z,5.85
2024-02-18T13:27:07.449Z,5.35
2024-02-18T13:29:50.250Z,7.70
2024-02-18T13:32:33.202Z,7.07
2024-02-18T13:35:16.233Z,4.43
2024-02-18T13:37:58.991Z,7.28
2024-02-18T13:40:43.070Z,4.75
2024-02-18T13:43:25.900Z,7.13
2024-02-18T13:46:08.666Z,5.82
2024-02-18T13:48:51.598Z,6.05
2024-02-18T13:51:35.086Z,5.82
2024-02-18T13:54:18.289Z,6.25
2024-02-18T13:57:02.425Z,5.50
2024-02-18T13:59:45.442Z,5.72
2024-02-18T14:02:28.233Z,6.50
2024-02-18T14:05:12.405Z,4.72
2024-02-18T14:07:55.210Z,7.20
2024-02-18T14:10:37.948Z,5.93
2024-02-18T14:13:23.729Z,3.83
2024-02-18T14:16:06.930Z,3.53
2024-02-18T14:18:49.872Z,4.85
2024-02-18T14:21:32.875Z,4.15
2024-02-18T14:24:16.323Z,6.65
2024-02-18T14:26:59.857Z,4.93
2024-02-18T14:29:43.990Z,4.43
2024-02-18T14:32:26.837Z,5.22
2024-02-18T14:35:09.751Z,4.95
2024-02-18T14:37:52.541Z,5.82
2024-02-18T14:40:37.009Z,5.05
2024-02-18T14:43:19.987Z,4.72
2024-02-18T14:46:04.126Z,4.85
2024-02-18T14:48:46.913Z,5.68
2024-02-18T14:51:30.390Z,5.05
2024-02-18T14:54:13.196Z,6.15
2024-02-18T14:56:55.980Z,4.60
2024-02-18T14:59:38.720Z,4.72
2024-02-18T15:02:23.154Z,4.65
2024-02-18T15:05:07.908Z,5.30
2024-02-18T15:07:51.190Z,4.95
2024-02-18T15:10:34.061Z,6.88
2024-02-18T15:13:19.019Z,6.57
2024-02-18T15:16:01.893Z,7.03
2024-02-18T15:18:46.824Z,6.65
2024-02-18T15:21:30.279Z,6.30
2024-02-18T15:24:13.043Z,5.95
2024-02-18T15:26:55.804Z,6.00
2024-02-18T15:29:38.506Z,4.78
2024-02-18T15:32:21.225Z,6.00
2024-02-18T15:35:05.778Z,7.35
2024-02-18T15:37:48.592Z,7.28
2024-02-18T15:40:31.488Z,6.10
2024-02-18T15:43:15.206Z,6.65
2024-02-18T15:45:58.947Z,6.47
2024-02-18T15:48:41.856Z,6.55
2024-02-18T15:51:28.608Z,6.50
2024-02-18T15:54:11.376Z,7.97
2024-02-18T15:56:54.228Z,8.00
2024-02-18T15:59:36.962Z,7.18
2024-02-18T16:02:19.755Z,7.30
2024-02-18T16:05:02.565Z,8.70
2024-02-18T16:07:46.716Z,8.63
2024-02-18T16:10:29.876Z,5.80
2024-02-18T16:13:12.907Z,5.85
2024-02-18T16:15:55.801Z,6.00
2024-02-18T16:18:38.945Z,6.20
2024-02-18T16:21:21.829Z,6.25
2024-02-18T16:24:06.292Z,6.38
2024-02-18T16:26:49.447Z,7.15
2024-02-18T16:29:33.749Z,7.57
2024-02-18T16:32:16.488Z,5.80
2024-02-18T16:34:59.610Z,6.68
2024-02-18T16:37:42.809Z,5.82
2024-02-18T16:40:27.053Z,6.38
2024-02-18T16:43:10.031Z,5.30
2024-02-18T16:45:53.498Z,5.22
2024-02-18T16:48:38.745Z,5.05
2024-02-18T16:51:24.785Z,5.32
2024-02-18T16:54:07.518Z,7.60
2024-02-18T16:56:52.133Z,6.28
2024-02-18T16:59:38.275Z,5.05
2024-02-18T17:02:21.235Z,5.35
2024-02-18T17:05:07.070Z,6.75
2024-02-18T17:07:49.886Z,6.22
2024-02-18T17:10:33.124Z,5.68
2024-02-18T17:13:17.887Z,4.45
2024-02-18T17:16:00.755Z,5.88
2024-02-18T17:18:43.788Z,5.18
2024-02-18T17:21:27.061Z,6.28
2024-02-18T17:24:10.386Z,6.72
2024-02-18T17:26:53.682Z,6.40
2024-02-18T17:29:38.316Z,5.63
2024-02-18T17:32:23.398Z,6.97
2024-02-18T17:35:06.707Z,4.72
2024-02-18T17:37:50.187Z,5.70
2024-02-18T17:40:33.028Z,4.63
2024-02-18T17:43:15.789Z,4.82
2024-02-18T17:46:00.527Z,8.07
2024-02-18T17:48:43.501Z,5.10
2024-02-18T17:51:32.148Z,5.35
2024-02-18T17:54:15.268Z,4.85
2024-02-18T17:56:58.360Z,6.07
2024-02-18T17:59:41.507Z,5.20
2024-02-18T18:02:25.737Z,5.35
2024-02-18T18:05:09.474Z,5.57
2024-02-18T18:07:55.783Z,6.25
2024-02-18T18:10:39.387Z,5.97
2024-02-18T18:13:22.288Z,5.50
2024-02-18T18:16:08.297Z,5.13
2024-02-18T18:18:52.627Z,4.05
2024-02-18T18:21:35.461Z,5.78
2024-02-18T18:24:18.316Z,4.88
2024-02-18T18:27:01.234Z,6.85
2024-02-18T18:29:45.417Z,4.60
2024-02-18T18:32:28.943Z,5.07
2024-02-18T18:35:13.604Z,6.40
2024-02-18T18:37:56.550Z,6.45
2024-02-18T18:40:39.353Z,5.60
2024-02-18T18:43:22.286Z,4.82
2024-02-18T18:46:05.141Z,5.28
2024-02-18T18:48:47.931Z,5.47
2024-02-18T18:51:33.213Z,3.65
2024-02-18T18:54:16.181Z,3.92
2024-02-18T18:56:58.937Z,6.47
2024-02-18T18:59:41.707Z,5.15
2024-02-18T19:02:24.565Z,5.00
2024-02-18T19:05:07.740Z,5.45
2024-02-18T19:07:52.127Z,3.67
2024-02-18T19:10:35.981Z,5.82
2024-02-18T19:13:31.423Z,5.00
2024-02-18T19:16:21.633Z,4.22
2024-02-18T19:19:04.914Z,5.25
2024-02-18T19:21:47.762Z,4.80
2024-02-18T19:24:31.958Z,3.90
2024-02-18T19:27:14.788Z,5.75
2024-02-18T19:29:57.585Z,4.75
2024-02-18T19:32:40.353Z,4.60
2024-02-18T19:35:24.185Z,3.97
2024-02-18T19:38:07.103Z,4.25
2024-02-18T19:40:51.262Z,4.60
2024-02-18T19:43:34.002Z,4.53
2024-02-18T19:46:17.181Z,3.60
2024-02-18T19:49:00.991Z,4.63
2024-02-18T19:51:44.016Z,5.55
2024-02-18T19:54:29.761Z,5.00
2024-02-18T19:57:14.331Z,4.82
2024-02-18T19:59:57.121Z,3.83
2024-02-18T20:02:39.802Z,5.72
2024-02-18T20:05:22.988Z,6.05
2024-02-18T20:08:06.153Z,5.03
2024-02-18T20:10:50.236Z,4.70
2024-02-18T20:13:34.423Z,4.80
2024-02-18T20:16:17.258Z,6.40
2024-02-18T20:19:00.200Z,4.07
2024-02-18T20:21:43.055Z,4.85
2024-02-18T20:24:25.838Z,4.68
2024-02-18T20:27:08.615Z,4.68
2024-02-18T20:29:52.856Z,6.47
2024-02-18T20:32:35.634Z,5.32
2024-02-18T20:35:18.659Z,5.32
2024-02-18T20:38:01.441Z,5.55
2024-02-18T20:40:48.686Z,4.22
2024-02-18T20:43:31.770Z,5.60
2024-02-18T20:46:19.488Z,5.60
2024-02-18T20:49:03.440Z,4.45
2024-02-18T20:51:46.882Z,5.95
2024-02-18T20:54:29.783Z,5.05
2024-02-18T20:57:13.525Z,4.57
2024-02-18T20:59:56.772Z,4.72
2024-02-18T21:02:41.326Z,3.60
2024-02-18T21:05:24.243Z,3.28
2024-02-18T21:08:07.237Z,2.75
2024-02-18T21:10:50.134Z,2.75
2024-02-18T21:13:32.910Z,2.75
2024-02-18T21:16:16.061Z,2.88
2024-02-18T21:19:00.239Z,2.67
2024-02-18T21:21:43.987Z,2.80
2024-02-18T21:24:26.935Z,2.58
2024-02-18T21:27:09.728Z,2.40
2024-02-18T21:29:52.479Z,2.13
2024-02-18T21:32:35.251Z,2.47
2024-02-18T21:35:20.851Z,2.67
2024-02-18T21:38:06.903Z,3.58
2024-02-18T21:40:49.716Z,3.40
2024-02-18T21:43:32.470Z,4.43
2024-02-18T21:46:15.880Z,2.90
2024-02-18T21:48:58.725Z,3.47
2024-02-18T21:51:43.039Z,3.22
2024-02-18T21:54:25.816Z,3.90
2024-02-18T21:57:08.482Z,3.53
2024-02-18T21:59:51.241Z,4.38
2024-02-18T22:02:34.024Z,4.38
2024-02-18T22:05:20.151Z,3.90
2024-02-18T22:08:05.324Z,3.92
2024-02-18T22:10:48.087Z,4.15
2024-02-18T22:13:30.818Z,3.90
2024-02-18T22:16:13.714Z,6.00
2024-02-18T22:18:56.644Z,4.43
2024-02-18T22:21:39.537Z,4.20
2024-02-18T22:24:25.251Z,4.55
2024-02-18T22:27:07.943Z,4.57
2024-02-18T22:29:50.663Z,3.92
2024-02-18T22:32:33.439Z,6.25
2024-02-18T22:35:16.323Z,3.63
2024-02-18T22:37:59.107Z,3.97
2024-02-18T22:40:43.157Z,4.85
2024-02-18T22:43:25.956Z,4.72
2024-02-18T22:46:08.816Z,4.13
2024-02-18T22:48:51.801Z,4.57
2024-02-18T22:51:35.989Z,5.32
2024-02-18T22:54:18.718Z,5.60
2024-02-18T22:57:02.734Z,3.85
2024-02-18T22:59:46.171Z,3.40
2024-02-18T23:02:29.637Z,3.75
2024-02-18T23:05:13.018Z,4.18
2024-02-18T23:07:55.797Z,4.55
2024-02-18T23:10:38.440Z,4.47
2024-02-18T23:13:23.114Z,4.53
2024-02-18T23:16:06.239Z,3.97
2024-02-18T23:18:49.169Z,4.38
2024-02-18T23:21:31.934Z,4.22
2024-02-18T23:24:14.725Z,4.28
2024-02-18T23:26:57.485Z,5.07
2024-02-18T23:29:41.516Z,4.90
2024-02-18T23:32:24.413Z,4.78
2024-02-18T23:35:07.694Z,4.82
2024-02-18T23:37:50.467Z,3.75
2024-02-18T23:40:33.804Z,4.18
2024-02-18T23:43:21.405Z,4.80
2024-02-18T23:46:06.108Z,4.45
2024-02-18T23:48:52.898Z,4.68
2024-02-18T23:51:36.945Z,5.38
2024-02-18T23:54:19.674Z,5.82
2024-02-18T23:57:02.363Z,5.43
2024-02-18T23:59:45.216Z,6.45
